Time;durP1;ratioP1;P1;durP2;ratioP2;P2;SDS_P1;SDS_P2;PMS_P1;PMS_P2;Temp;Humidity;BMP_temperature;BMP_pressure;BME280_temperature;BME280_humidity;BME280_pressure;Samples;Min_cycle;Max_cycle;Signal;HPM_P1;HPM_P2
2021/10/01 00:01:08;;;;;;;4.72;1.60;;;12.60;96.20;;;;;;4847722;29;20071;-84
2021/10/01 00:03:36;;;;;;;9.48;2.03;;;12.60;96.10;;;;;;4899070;29;20044;-80
2021/10/01 00:06:03;;;;;;;9.27;2.03;;;12.60;96.10;;;;;;4867592;29;20040;-82
2021/10/01 00:08:29;;;;;;;9.88;2.00;;;12.60;96.20;;;;;;4897897;29;20394;-77
2021/10/01 00:10:57;;;;;;;6.55;1.80;;;12.60;96.20;;;;;;4899762;29;20032;-80
2021/10/01 00:13:26;;;;;;;10.65;2.15;;;12.60;96.00;;;;;;4912260;29;20040;-82
2021/10/01 00:15:53;;;;;;;5.45;1.73;;;12.60;96.20;;;;;;4873801;29;20036;-81
2021/10/01 00:18:19;;;;;;;5.43;1.88;;;12.60;96.10;;;;;;4899755;29;20040;-81
2021/10/01 00:20:45;;;;;;;7.57;2.20;;;12.60;96.10;;;;;;4873814;29;20047;-83
2021/10/01 00:23:11;;;;;;;6.72;1.95;;;12.60;96.00;;;;;;4883264;29;20044;-81
2021/10/01 00:25:37;;;;;;;8.70;2.03;;;12.60;95.90;;;;;;4868153;29;20104;-83
2021/10/01 00:28:03;;;;;;;4.97;1.63;;;12.60;96.10;;;;;;4884878;29;20050;-82
2021/10/01 00:30:29;;;;;;;9.32;1.80;;;12.60;96.00;;;;;;4898865;29;20075;-84
2021/10/01 00:33:04;;;;;;;9.77;1.65;;;12.60;95.80;;;;;;4869184;29;20060;-79
2021/10/01 00:35:30;;;;;;;4.75;1.42;;;12.60;95.80;;;;;;4872193;29;20047;-82
2021/10/01 00:37:58;;;;;;;11.88;2.30;;;12.60;95.70;;;;;;4870853;29;20044;-82
2021/10/01 00:40:26;;;;;;;6.60;1.80;;;12.60;95.70;;;;;;4876641;29;20064;-84
2021/10/01 00:42:52;;;;;;;7.90;1.80;;;12.60;95.70;;;;;;4883491;29;20044;-84
2021/10/01 00:45:18;;;;;;;2.97;1.23;;;12.60;95.50;;;;;;4887062;29;20411;-84
2021/10/01 00:47:43;;;;;;;6.90;1.80;;;12.60;95.60;;;;;;4884394;29;20154;-79
2021/10/01 00:50:10;;;;;;;10.98;1.77;;;12.60;95.90;;;;;;4883122;29;20039;-81
2021/10/01 00:52:38;;;;;;;5.80;1.70;;;12.60;96.20;;;;;;4881757;29;20103;-86
2021/10/01 00:55:04;;;;;;;10.38;2.20;;;12.60;96.40;;;;;;4874806;29;20055;-81
2021/10/01 00:57:30;;;;;;;8.73;1.92;;;12.60;96.50;;;;;;4875453;29;20036;-80
2021/10/01 00:59:55;;;;;;;9.18;2.03;;;12.50;96.60;;;;;;4897270;29;20039;-82
2021/10/01 01:02:22;;;;;;;8.13;1.70;;;12.50;96.60;;;;;;4870771;29;20044;-80
2021/10/01 01:04:55;;;;;;;5.47;1.70;;;12.50;96.70;;;;;;4902418;29;20086;-85
2021/10/01 01:07:31;;;;;;;6.20;1.70;;;12.50;96.70;;;;;;4893139;29;20040;-82
2021/10/01 01:10:16;;;;;;;5.38;1.70;;;12.50;96.60;;;;;;4884502;29;20475;-79
2021/10/01 01:12:52;;;;;;;7.97;1.88;;;12.50;96.70;;;;;;4900794;29;20520;-83
2021/10/01 01:15:26;;;;;;;8.02;1.90;;;12.50;96.70;;;;;;4898035;29;20066;-81
2021/10/01 01:18:10;;;;;;;5.95;1.83;;;12.40;96.60;;;;;;4901586;29;20914;-82
2021/10/01 01:20:50;;;;;;;3.72;1.40;;;12.50;96.70;;;;;;4908009;29;20040;-81
2021/10/01 01:23:31;;;;;;;13.82;1.85;;;12.40;96.70;;;;;;4892962;29;20923;-83
2021/10/01 01:26:10;;;;;;;7.30;1.70;;;12.40;96.60;;;;;;4900236;29;20103;-80
2021/10/01 01:29:13;;;;;;;4.60;1.70;;;12.40;96.60;;;;;;4888042;29;20668;-82
2021/10/01 01:31:55;;;;;;;5.28;1.40;;;12.40;96.60;;;;;;4907340;29;20084;-81
2021/10/01 01:34:34;;;;;;;7.75;1.38;;;12.40;96.60;;;;;;4887574;29;20044;-84
2021/10/01 01:37:11;;;;;;;7.75;2.03;;;12.40;96.70;;;;;;4887479;29;20036;-81
2021/10/01 01:39:38;;;;;;;8.82;1.58;;;12.30;96.80;;;;;;4892256;29;20050;-84
2021/10/01 01:42:07;;;;;;;7.03;1.88;;;12.30;96.90;;;;;;4889384;29;20526;-82
2021/10/01 01:44:33;;;;;;;8.88;2.00;;;12.30;96.90;;;;;;4873071;29;20075;-81
2021/10/01 01:47:01;;;;;;;6.00;1.60;;;12.30;97.10;;;;;;4885893;29;20041;-81
2021/10/01 01:49:29;;;;;;;10.25;1.77;;;12.30;96.80;;;;;;4886563;29;20543;-80
2021/10/01 01:51:58;;;;;;;7.07;1.95;;;12.30;97.00;;;;;;4883167;29;20047;-80
2021/10/01 01:54:26;;;;;;;6.30;1.80;;;12.30;97.00;;;;;;4902223;29;20526;-81
2021/10/01 01:56:53;;;;;;;6.53;1.88;;;12.30;97.10;;;;;;4866621;29;20044;-80
2021/10/01 01:59:20;;;;;;;9.40;2.33;;;12.30;97.10;;;;;;4886880;29;20058;-81
2021/10/01 02:01:47;;;;;;;6.32;1.60;;;12.20;97.10;;;;;;4881378;29;20063;-81
2021/10/01 02:04:14;;;;;;;6.25;1.55;;;12.30;97.00;;;;;;4886191;29;20044;-80
2021/10/01 02:06:41;;;;;;;7.00;2.10;;;12.30;97.10;;;;;;4868689;29;20241;-80
2021/10/01 02:09:09;;;;;;;5.10;2.03;;;12.20;97.10;;;;;;4883184;29;20082;-81
2021/10/01 02:11:35;;;;;;;7.30;1.73;;;12.20;97.20;;;;;;4909457;29;20119;-80
2021/10/01 02:14:02;;;;;;;9.15;2.10;;;12.20;97.10;;;;;;4884749;29;20124;-81
2021/10/01 02:16:29;;;;;;;4.32;1.70;;;12.30;97.30;;;;;;4867262;29;20032;-80
2021/10/01 02:18:58;;;;;;;5.20;1.67;;;12.30;97.30;;;;;;4877554;29;20055;-81
2021/10/01 02:21:24;;;;;;;5.30;1.45;;;12.30;97.20;;;;;;4895950;29;20043;-80
2021/10/01 02:23:51;;;;;;;6.60;1.60;;;12.20;97.10;;;;;;4878590;29;20036;-80
2021/10/01 02:26:41;;;;;;;8.00;1.85;;;12.30;97.10;;;;;;4880567;29;20044;-83
2021/10/01 02:29:26;;;;;;;8.98;1.88;;;12.30;97.30;;;;;;4891244;29;20059;-80
2021/10/01 02:32:22;;;;;;;5.43;1.80;;;12.30;97.20;;;;;;4894802;29;20040;-82
2021/10/01 02:34:49;;;;;;;6.75;1.50;;;12.30;97.10;;;;;;4906382;29;20264;-81
2021/10/01 02:37:15;;;;;;;8.13;1.92;;;12.20;97.20;;;;;;4892738;29;20185;-80
2021/10/01 02:39:44;;;;;;;6.63;1.88;;;12.20;97.20;;;;;;4893688;29;20048;-80
2021/10/01 02:42:11;;;;;;;6.82;2.17;;;12.20;97.20;;;;;;4890936;29;20050;-80
2021/10/01 02:44:40;;;;;;;7.35;1.75;;;12.20;97.20;;;;;;4883081;29;20076;-80
2021/10/01 02:47:06;;;;;;;4.70;1.60;;;12.20;97.30;;;;;;4898306;29;20035;-81
2021/10/01 02:49:32;;;;;;;8.07;1.80;;;12.20;97.30;;;;;;4889899;29;20054;-81
2021/10/01 02:52:03;;;;;;;4.80;1.35;;;12.20;97.30;;;;;;4863186;29;20065;-81
2021/10/01 02:54:52;;;;;;;6.38;1.52;;;12.20;97.20;;;;;;4895559;29;20040;-81
2021/10/01 02:57:22;;;;;;;7.47;2.08;;;12.20;97.10;;;;;;4880276;29;20031;-81
2021/10/01 02:59:49;;;;;;;4.53;1.55;;;12.20;97.10;;;;;;4895510;29;20124;-82
2021/10/01 03:02:16;;;;;;;9.27;1.95;;;12.20;97.10;;;;;;4865984;29;20491;-81
2021/10/01 03:04:47;;;;;;;4.50;1.52;;;12.30;97.10;;;;;;4897117;29;20042;-81
2021/10/01 03:07:14;;;;;;;9.02;1.63;;;12.20;97.00;;;;;;4886956;29;20054;-81
2021/10/01 03:09:41;;;;;;;7.85;1.40;;;12.20;96.90;;;;;;4897773;29;20067;-80
2021/10/01 03:12:07;;;;;;;12.80;1.80;;;12.30;97.00;;;;;;4883740;29;20058;-81
2021/10/01 03:14:35;;;;;;;7.60;1.50;;;12.20;96.90;;;;;;4870281;29;20107;-82
2021/10/01 03:17:02;;;;;;;9.30;2.05;;;12.30;96.80;;;;;;4885098;29;20032;-80
2021/10/01 03:19:30;;;;;;;7.28;1.55;;;12.30;97.00;;;;;;4895036;29;20535;-82
2021/10/01 03:21:57;;;;;;;3.50;1.50;;;12.20;96.90;;;;;;4900931;29;22668;-81
2021/10/01 03:24:23;;;;;;;4.68;1.40;;;12.30;96.90;;;;;;4887746;29;20476;-81
2021/10/01 03:26:53;;;;;;;7.70;1.63;;;12.30;96.90;;;;;;4885384;29;20043;-82
2021/10/01 03:29:19;;;;;;;7.03;1.90;;;12.20;97.00;;;;;;4912389;29;20514;-80
2021/10/01 03:31:48;;;;;;;9.48;1.83;;;12.20;97.10;;;;;;4885970;29;20178;-81
2021/10/01 03:34:14;;;;;;;5.82;1.88;;;12.20;97.10;;;;;;4897415;29;20087;-82
2021/10/01 03:36:42;;;;;;;5.22;1.40;;;12.20;97.20;;;;;;4886807;29;20046;-80
2021/10/01 03:39:08;;;;;;;12.95;1.88;;;12.20;97.40;;;;;;4903084;29;20043;-82
2021/10/01 03:41:34;;;;;;;6.20;1.92;;;12.10;97.50;;;;;;4885397;29;20047;-77
2021/10/01 03:44:00;;;;;;;7.00;1.75;;;12.10;97.70;;;;;;4861719;29;20044;-82
2021/10/01 03:46:26;;;;;;;5.20;1.48;;;12.10;97.90;;;;;;4877745;29;20062;-80
2021/10/01 03:48:53;;;;;;;5.80;1.55;;;12.10;98.00;;;;;;4882468;29;20044;-83
2021/10/01 03:51:18;;;;;;;11.98;2.00;;;12.00;98.20;;;;;;4878972;29;20033;-80
2021/10/01 03:53:45;;;;;;;7.07;1.70;;;12.00;98.40;;;;;;4888403;29;20502;-81
2021/10/01 03:56:20;;;;;;;5.32;1.50;;;11.90;98.50;;;;;;4893178;29;20043;-80
2021/10/01 03:58:47;;;;;;;5.63;1.63;;;11.90;98.50;;;;;;4869440;29;20092;-79
2021/10/01 04:01:13;;;;;;;7.65;1.65;;;11.90;98.70;;;;;;4886187;29;20134;-81
2021/10/01 04:03:39;;;;;;;5.63;1.63;;;11.90;98.80;;;;;;4869747;29;20123;-78
2021/10/01 04:06:05;;;;;;;5.22;1.80;;;11.90;98.90;;;;;;4897000;29;20495;-82
2021/10/01 04:08:32;;;;;;;4.97;1.48;;;11.90;99.00;;;;;;4892950;29;20408;-79
2021/10/01 04:10:58;;;;;;;8.60;1.60;;;11.80;98.90;;;;;;4875956;29;20036;-81
2021/10/01 04:13:24;;;;;;;10.20;1.80;;;11.80;99.00;;;;;;4884013;29;20066;-78
2021/10/01 04:15:50;;;;;;;10.40;2.00;;;11.80;99.20;;;;;;4879705;29;20036;-83
2021/10/01 04:18:16;;;;;;;6.53;1.80;;;11.80;98.90;;;;;;4882949;29;20047;-81
2021/10/01 04:20:44;;;;;;;9.15;2.03;;;11.80;99.00;;;;;;4891799;29;20671;-81
2021/10/01 04:23:10;;;;;;;7.53;1.98;;;11.80;98.90;;;;;;4885600;29;20042;-80
2021/10/01 04:25:36;;;;;;;7.28;1.58;;;11.90;98.90;;;;;;4871819;29;20044;-81
2021/10/01 04:28:05;;;;;;;6.55;1.80;;;11.90;98.90;;;;;;4859774;29;20621;-79
2021/10/01 04:30:31;;;;;;;8.68;1.60;;;11.90;98.70;;;;;;4885182;29;20723;-82
2021/10/01 04:33:01;;;;;;;4.47;1.60;;;11.90;98.70;;;;;;4865668;29;20290;-81
2021/10/01 04:35:27;;;;;;;9.82;1.98;;;11.90;98.70;;;;;;4851253;29;20409;-84
2021/10/01 04:37:53;;;;;;;7.05;1.83;;;11.80;98.70;;;;;;4854776;29;20519;-78
2021/10/01 04:40:19;;;;;;;5.93;1.80;;;11.90;98.80;;;;;;4878570;29;20067;-78
2021/10/01 04:42:44;;;;;;;9.10;1.65;;;11.90;98.90;;;;;;4882969;29;20043;-78
2021/10/01 04:45:10;;;;;;;7.15;1.67;;;11.90;98.80;;;;;;4863730;29;20430;-81
2021/10/01 04:47:37;;;;;;;13.52;1.95;;;11.90;98.60;;;;;;4876712;29;20043;-83
2021/10/01 04:50:05;;;;;;;5.80;1.60;;;11.90;98.50;;;;;;4873638;29;20075;-79
2021/10/01 04:52:31;;;;;;;6.65;1.70;;;11.80;98.40;;;;;;4894150;29;20051;-81
2021/10/01 04:54:57;;;;;;;5.43;1.75;;;11.80;98.40;;;;;;4873658;29;20112;-78
2021/10/01 04:57:23;;;;;;;7.20;1.30;;;11.80;98.40;;;;;;4889277;29;20286;-80
2021/10/01 04:59:49;;;;;;;7.40;1.73;;;11.80;98.40;;;;;;4877657;29;20040;-80
2021/10/01 05:02:15;;;;;;;8.68;1.70;;;11.70;98.30;;;;;;4906120;29;20036;-82
2021/10/01 05:04:41;;;;;;;4.10;1.42;;;11.70;98.30;;;;;;4878139;29;20407;-82
2021/10/01 05:07:06;;;;;;;6.03;1.65;;;11.70;98.40;;;;;;4871464;29;20044;-82
2021/10/01 05:09:32;;;;;;;10.30;1.67;;;11.70;98.40;;;;;;4863077;29;20048;-78
2021/10/01 05:11:58;;;;;;;6.18;1.35;;;11.70;98.40;;;;;;4879933;29;20040;-83
2021/10/01 05:14:24;;;;;;;6.05;1.73;;;11.60;98.40;;;;;;4893503;29;20538;-80
2021/10/01 05:16:49;;;;;;;5.38;1.30;;;11.60;98.40;;;;;;4890364;29;20407;-82
2021/10/01 05:19:15;;;;;;;3.72;1.70;;;11.60;98.40;;;;;;4902185;29;20078;-80
2021/10/01 05:21:41;;;;;;;6.47;1.77;;;11.60;98.50;;;;;;4893348;29;20044;-78
2021/10/01 05:24:06;;;;;;;6.50;1.63;;;11.60;98.50;;;;;;4896630;29;20062;-83
2021/10/01 05:26:32;;;;;;;6.25;1.80;;;11.60;98.60;;;;;;4903958;29;20032;-81
2021/10/01 05:28:58;;;;;;;5.78;1.23;;;11.60;98.60;;;;;;4886957;29;20053;-84
2021/10/01 05:31:24;;;;;;;6.38;1.92;;;11.60;98.40;;;;;;4863798;29;20050;-81
2021/10/01 05:33:50;;;;;;;9.18;1.85;;;11.60;98.70;;;;;;4864086;29;20040;-82
2021/10/01 05:36:17;;;;;;;6.78;1.98;;;11.60;98.40;;;;;;4907212;29;20150;-81
2021/10/01 05:38:43;;;;;;;7.80;1.90;;;11.60;98.40;;;;;;4879666;29;20468;-82
2021/10/01 05:41:09;;;;;;;6.45;1.70;;;11.60;98.40;;;;;;4870637;29;20103;-84
2021/10/01 05:43:35;;;;;;;6.68;1.67;;;11.60;98.50;;;;;;4876949;29;20052;-80
2021/10/01 05:46:00;;;;;;;4.78;1.90;;;11.60;98.50;;;;;;4868829;29;20048;-79
2021/10/01 05:48:29;;;;;;;7.78;1.75;;;11.60;98.30;;;;;;4885155;29;20044;-81
2021/10/01 05:50:57;;;;;;;3.45;1.38;;;11.60;98.30;;;;;;4881970;29;20036;-80
2021/10/01 05:56:11;;;;;;;8.60;1.75;;;11.50;98.20;;;;;;4877500;29;20130;-80
2021/10/01 05:58:38;;;;;;;4.97;1.40;;;11.50;98.20;;;;;;4880520;29;20479;-81
2021/10/01 06:01:04;;;;;;;11.50;1.90;;;11.50;98.30;;;;;;4873205;29;20513;-82
2021/10/01 06:03:30;;;;;;;6.90;1.40;;;11.50;98.40;;;;;;4898115;29;20043;-84
2021/10/01 06:05:56;;;;;;;5.35;1.42;;;11.50;98.40;;;;;;4882177;29;20517;-80
2021/10/01 06:08:21;;;;;;;5.60;1.55;;;11.50;98.50;;;;;;4881936;29;20395;-77
2021/10/01 06:10:48;;;;;;;8.40;1.60;;;11.50;98.50;;;;;;4896919;29;20373;-83
2021/10/01 06:13:14;;;;;;;7.10;1.60;;;11.50;98.50;;;;;;4896226;29;20182;-81
2021/10/01 06:15:40;;;;;;;10.25;1.92;;;11.50;98.40;;;;;;4880689;29;20055;-80
2021/10/01 06:18:06;;;;;;;7.90;1.50;;;11.50;98.40;;;;;;4895775;29;20036;-80
2021/10/01 06:20:32;;;;;;;6.75;1.50;;;11.60;98.30;;;;;;4894644;29;20099;-83
2021/10/01 06:22:57;;;;;;;6.45;1.80;;;11.60;98.30;;;;;;4882257;29;20182;-83
2021/10/01 06:25:24;;;;;;;6.78;1.80;;;11.60;98.20;;;;;;4917171;29;20043;-80
2021/10/01 06:27:50;;;;;;;5.55;1.40;;;11.60;98.10;;;;;;4894509;29;20479;-81
2021/10/01 06:30:17;;;;;;;4.90;1.40;;;11.60;98.10;;;;;;4896804;29;20044;-83
2021/10/01 06:32:43;;;;;;;6.03;1.63;;;11.60;98.00;;;;;;4894000;29;20035;-80
2021/10/01 06:35:10;;;;;;;7.22;2.42;;;11.70;97.80;;;;;;4878861;29;20039;-81
2021/10/01 06:37:36;;;;;;;4.68;1.60;;;11.70;97.80;;;;;;4900067;29;20511;-79
2021/10/01 06:40:03;;;;;;;6.32;1.63;;;11.70;97.70;;;;;;4898729;29;20072;-79
2021/10/01 06:42:29;;;;;;;7.53;1.50;;;11.70;97.70;;;;;;4870500;29;20142;-83
2021/10/01 06:44:56;;;;;;;9.88;1.90;;;11.70;97.70;;;;;;4875068;29;20100;-83
2021/10/01 08:19:41;;;;;;;5.78;1.63;;;13.30;94.40;;;;;;4896768;29;20036;-80
2021/10/01 08:22:09;;;;;;;5.50;1.30;;;13.30;94.40;;;;;;4870600;29;20199;-80
2021/10/01 08:24:35;;;;;;;5.25;1.42;;;13.40;93.70;;;;;;4887282;29;20052;-82
2021/10/01 08:27:03;;;;;;;5.47;1.60;;;13.40;94.00;;;;;;4880605;29;20036;-81
2021/10/01 08:29:31;;;;;;;4.63;1.10;;;13.50;94.00;;;;;;4869513;29;20082;-79
2021/10/01 08:32:02;;;;;;;6.32;1.40;;;13.60;93.90;;;;;;4871370;29;20071;-79
2021/10/01 08:34:30;;;;;;;6.40;1.25;;;13.60;94.10;;;;;;4885373;29;20058;-85
2021/10/01 08:36:56;;;;;;;6.28;1.42;;;13.70;94.10;;;;;;4854203;29;20071;-83
2021/10/01 08:39:22;;;;;;;7.60;1.27;;;13.70;94.00;;;;;;4869973;29;20035;-85
2021/10/01 08:41:48;;;;;;;6.07;1.38;;;13.80;93.70;;;;;;4892605;29;20032;-80
2021/10/01 08:44:15;;;;;;;3.55;1.30;;;13.80;93.10;;;;;;4889902;29;20107;-81
2021/10/01 08:46:43;;;;;;;3.63;1.30;;;13.90;93.00;;;;;;4898277;29;20406;-80
2021/10/01 08:49:09;;;;;;;6.72;1.50;;;13.90;92.60;;;;;;4887720;29;20074;-82
2021/10/01 08:51:36;;;;;;;7.60;1.90;;;14.00;92.70;;;;;;4883829;29;20361;-82
2021/10/01 08:54:02;;;;;;;6.68;1.48;;;14.00;92.80;;;;;;4893583;29;20072;-82
2021/10/01 08:56:28;;;;;;;5.10;1.27;;;14.00;92.80;;;;;;4880240;29;20051;-80
2021/10/01 08:58:54;;;;;;;6.50;1.60;;;14.00;92.90;;;;;;4866665;29;20506;-83
2021/10/01 09:01:20;;;;;;;10.88;1.63;;;14.00;92.90;;;;;;4863826;29;20039;-84
2021/10/01 09:03:46;;;;;;;6.60;1.60;;;14.00;93.30;;;;;;4879765;29;20551;-84
2021/10/01 09:06:14;;;;;;;8.68;1.55;;;14.00;93.20;;;;;;4866292;29;20397;-83
2021/10/01 09:08:58;;;;;;;9.35;1.70;;;14.00;93.50;;;;;;4879834;29;20054;-80
2021/10/01 09:11:34;;;;;;;5.63;1.75;;;14.00;93.50;;;;;;4878352;29;20040;-78
2021/10/01 09:14:09;;;;;;;8.60;1.70;;;14.00;93.40;;;;;;4881335;29;20040;-82
2021/10/01 09:16:37;;;;;;;6.20;1.52;;;14.00;92.90;;;;;;4897190;29;20131;-79
2021/10/01 09:21:45;;;;;;;6.70;1.48;;;14.10;92.70;;;;;;4890220;23;20045;-85
2021/10/01 09:24:13;;;;;;;10.75;1.88;;;14.20;93.00;;;;;;4884737;29;20048;-84
2021/10/01 09:26:48;;;;;;;5.95;1.60;;;14.20;92.90;;;;;;4868677;29;20051;-83
2021/10/01 09:29:24;;;;;;;6.47;1.63;;;14.30;92.70;;;;;;4891144;29;20130;-83
2021/10/01 09:31:52;;;;;;;8.95;1.60;;;14.30;92.50;;;;;;4852925;29;20044;-78
2021/10/01 09:34:24;;;;;;;6.32;1.40;;;14.30;92.80;;;;;;4835556;29;20397;-85
2021/10/01 09:37:13;;;;;;;7.68;2.42;;;14.40;92.80;;;;;;4867950;29;20158;-84
2021/10/01 09:39:51;;;;;;;3.97;1.40;;;14.40;93.00;;;;;;4866507;29;20842;-84
2021/10/01 09:42:26;;;;;;;5.30;1.88;;;14.40;92.90;;;;;;4865154;29;20075;-82
2021/10/01 09:44:59;;;;;;;7.82;1.90;;;14.40;92.10;;;;;;4859967;29;20044;-84
2021/10/01 09:47:35;;;;;;;8.27;1.65;;;14.40;92.10;;;;;;4868554;29;20044;-78
2021/10/01 09:50:27;;;;;;;6.82;1.58;;;14.40;92.70;;;;;;4867563;29;20037;-81
2021/10/01 09:52:53;;;;;;;4.23;1.10;;;14.40;92.50;;;;;;4867729;29;20852;-84
2021/10/01 09:55:32;;;;;;;7.53;1.63;;;14.40;92.70;;;;;;4855750;29;20045;-81
2021/10/01 09:58:01;;;;;;;4.90;1.40;;;14.40;92.70;;;;;;4867514;29;20626;-82
2021/10/01 10:00:45;;;;;;;7.78;1.42;;;14.40;93.10;;;;;;4844853;29;20064;-78
2021/10/01 10:03:28;;;;;;;5.88;1.40;;;14.50;93.10;;;;;;4885435;29;20049;-81
2021/10/01 10:06:14;;;;;;;6.50;1.50;;;14.50;92.90;;;;;;4855600;29;20049;-82
2021/10/01 10:08:42;;;;;;;5.00;1.50;;;14.60;92.80;;;;;;4838658;29;20041;-82
2021/10/01 10:11:11;;;;;;;6.20;1.23;;;14.70;92.80;;;;;;4841470;29;20042;-83
2021/10/01 10:13:38;;;;;;;6.00;1.73;;;14.80;92.30;;;;;;4870968;29;20068;-80
2021/10/01 10:16:05;;;;;;;5.07;1.55;;;14.90;92.20;;;;;;4869305;29;20045;-84
2021/10/01 10:18:31;;;;;;;2.95;1.35;;;15.00;92.10;;;;;;4865356;29;20041;-82
2021/10/01 10:20:57;;;;;;;6.65;1.50;;;15.00;92.10;;;;;;4822323;29;20352;-83
2021/10/01 10:23:22;;;;;;;5.07;1.50;;;15.00;92.20;;;;;;4827977;29;20093;-81
2021/10/01 10:25:48;;;;;;;7.30;1.58;;;15.00;92.10;;;;;;4830266;29;20045;-80
2021/10/01 10:28:14;;;;;;;5.40;1.70;;;15.00;92.00;;;;;;4821725;29;20309;-83
2021/10/01 10:30:40;;;;;;;8.07;1.40;;;15.00;91.80;;;;;;4856294;29;20108;-80
2021/10/01 10:33:42;;;;;;;6.95;1.48;;;15.00;92.00;;;;;;4851244;29;20048;-82
2021/10/01 10:36:31;;;;;;;5.30;1.83;;;15.00;92.20;;;;;;4868403;29;20200;-86
2021/10/01 10:38:59;;;;;;;8.85;1.80;;;15.00;92.30;;;;;;4853831;29;20068;-85
2021/10/01 10:41:28;;;;;;;5.32;1.40;;;15.00;92.00;;;;;;4853280;29;20116;-83
2021/10/01 10:43:54;;;;;;;4.43;1.48;;;15.10;91.90;;;;;;4856930;29;20040;-83
2021/10/01 10:46:35;;;;;;;5.70;1.70;;;15.10;92.30;;;;;;4880882;29;20348;-85
2021/10/01 10:49:21;;;;;;;6.80;1.75;;;15.20;92.40;;;;;;4870751;29;20094;-81
2021/10/01 10:52:04;;;;;;;4.45;1.50;;;15.20;91.60;;;;;;4863911;29;20055;-84
2021/10/01 10:54:32;;;;;;;8.82;1.92;;;15.20;91.40;;;;;;4864980;29;20072;-83
2021/10/01 10:57:17;;;;;;;2.35;1.17;;;15.20;91.30;;;;;;4853247;29;20036;-85
2021/10/01 10:59:50;;;;;;;4.07;1.30;;;15.20;91.30;;;;;;4852964;29;20139;-83
2021/10/01 11:02:44;;;;;;;7.32;1.45;;;15.20;91.40;;;;;;4871145;29;20067;-81
2021/10/01 11:05:28;;;;;;;6.93;1.77;;;15.30;91.80;;;;;;4866945;29;20190;-83
2021/10/01 11:07:58;;;;;;;12.80;1.92;;;15.30;91.80;;;;;;4868572;29;20055;-79
2021/10/01 11:10:43;;;;;;;6.97;2.20;;;15.30;92.40;;;;;;4854797;29;20685;-84
2021/10/01 11:13:24;;;;;;;5.72;1.80;;;15.30;92.30;;;;;;4871652;29;20045;-81
2021/10/01 11:16:08;;;;;;;6.68;1.70;;;15.20;92.00;;;;;;4845841;29;20056;-80
2021/10/01 11:18:59;;;;;;;5.80;1.60;;;15.20;92.30;;;;;;4846128;29;20073;-82
2021/10/01 11:21:28;;;;;;;8.07;2.10;;;15.20;92.20;;;;;;4857796;29;20052;-83
2021/10/01 11:23:58;;;;;;;5.20;1.75;;;15.20;92.20;;;;;;4865251;29;20041;-86
2021/10/01 11:26:31;;;;;;;7.65;2.00;;;15.20;92.30;;;;;;4861112;29;20140;-82
2021/10/01 11:28:57;;;;;;;6.25;1.90;;;15.20;92.50;;;;;;4868349;29;20037;-80
2021/10/01 11:31:23;;;;;;;9.88;1.60;;;15.20;92.50;;;;;;4856350;29;20519;-82
2021/10/01 11:33:52;;;;;;;9.38;2.58;;;15.20;92.90;;;;;;4838234;29;20040;-84
2021/10/01 11:36:25;;;;;;;7.75;2.17;;;15.20;93.60;;;;;;4871499;29;20484;-80
2021/10/01 11:39:02;;;;;;;10.68;2.25;;;15.10;93.50;;;;;;4870624;29;20092;-85
2021/10/01 11:41:28;;;;;;;4.85;1.90;;;15.10;93.40;;;;;;4872932;29;20045;-83
2021/10/01 11:43:56;;;;;;;8.52;1.90;;;15.10;93.60;;;;;;4864891;29;20037;-83
2021/10/01 11:46:39;;;;;;;9.20;2.00;;;15.00;93.70;;;;;;4858408;29;20041;-82
2021/10/01 11:49:17;;;;;;;7.32;1.90;;;15.00;93.90;;;;;;4874210;29;20037;-84
2021/10/01 11:51:56;;;;;;;5.97;2.03;;;15.00;94.30;;;;;;4872376;29;20132;-83
2021/10/01 11:54:22;;;;;;;8.52;2.20;;;15.00;94.70;;;;;;4857856;29;20042;-84
2021/10/01 11:57:00;;;;;;;8.65;2.00;;;15.00;95.00;;;;;;4838081;29;20033;-81
2021/10/01 11:59:53;;;;;;;6.47;1.65;;;14.90;95.40;;;;;;4863970;29;20068;-80
2021/10/01 12:02:34;;;;;;;8.77;2.42;;;14.90;95.80;;;;;;4872281;29;20511;-84
2021/10/01 12:05:32;;;;;;;7.60;1.95;;;14.90;96.50;;;;;;4841933;29;20045;-82
2021/10/01 12:08:05;;;;;;;9.27;2.72;;;14.80;96.80;;;;;;4849912;29;20048;-83
2021/10/01 12:10:37;;;;;;;9.65;2.30;;;14.70;97.10;;;;;;4873519;29;20290;-84
2021/10/01 12:13:18;;;;;;;11.63;2.72;;;14.70;97.40;;;;;;4865570;29;20041;-82
2021/10/01 12:15:46;;;;;;;7.68;2.20;;;14.60;97.30;;;;;;4874973;29;20041;-82
2021/10/01 12:18:30;;;;;;;6.10;2.13;;;14.60;97.70;;;;;;4865163;29;20064;-84
2021/10/01 12:20:59;;;;;;;9.25;2.90;;;14.60;98.30;;;;;;4867529;29;20126;-82
2021/10/01 12:23:27;;;;;;;9.00;2.20;;;14.60;98.90;;;;;;4876293;29;20071;-83
2021/10/01 12:25:55;;;;;;;8.25;2.55;;;14.60;99.30;;;;;;4862332;29;20053;-81
2021/10/01 12:28:22;;;;;;;5.32;2.03;;;14.60;99.00;;;;;;4863040;29;20040;-84
2021/10/01 12:31:02;;;;;;;6.50;2.47;;;14.60;99.10;;;;;;4851522;29;20816;-82
2021/10/01 12:33:29;;;;;;;6.80;2.28;;;14.60;99.20;;;;;;4864689;29;20037;-86
2021/10/01 12:35:55;;;;;;;12.70;2.72;;;14.70;99.40;;;;;;4842494;29;20370;-84
2021/10/01 12:38:21;;;;;;;7.85;2.30;;;14.80;99.40;;;;;;4871938;29;20482;-82
2021/10/01 12:41:14;;;;;;;5.57;2.28;;;14.80;99.20;;;;;;4838949;29;20136;-83
2021/10/01 12:43:49;;;;;;;7.55;2.25;;;14.90;98.90;;;;;;4866887;29;20075;-85
2021/10/01 12:46:35;;;;;;;6.93;2.25;;;14.90;98.70;;;;;;4849946;29;20434;-83
2021/10/01 12:49:18;;;;;;;8.30;2.42;;;15.00;98.80;;;;;;4864320;29;20424;-82
2021/10/01 12:52:05;;;;;;;10.60;2.50;;;15.00;98.80;;;;;;4849508;29;20531;-85
2021/10/01 12:54:36;;;;;;;8.32;2.30;;;15.10;98.60;;;;;;4840707;29;20132;-85
2021/10/01 12:57:11;;;;;;;9.85;2.35;;;15.10;98.50;;;;;;4853277;29;20678;-84
2021/10/01 12:59:58;;;;;;;7.03;2.13;;;15.20;98.20;;;;;;4864484;29;20103;-85
2021/10/01 13:02:27;;;;;;;9.85;2.47;;;15.20;98.20;;;;;;4856197;29;20069;-81
2021/10/01 13:05:06;;;;;;;7.20;2.15;;;15.30;98.00;;;;;;4847097;29;20045;-82
2021/10/01 13:07:38;;;;;;;7.82;2.20;;;15.30;97.50;;;;;;4845822;29;20054;-82
2021/10/01 13:10:17;;;;;;;5.80;2.17;;;15.40;97.40;;;;;;4879386;29;20044;-83
2021/10/01 13:12:51;;;;;;;6.75;1.95;;;15.40;97.20;;;;;;4848444;29;20725;-85
2021/10/01 13:15:27;;;;;;;6.65;2.08;;;15.50;96.70;;;;;;4862525;29;20037;-79
2021/10/01 13:17:59;;;;;;;6.63;2.20;;;15.60;95.80;;;;;;4850611;29;20037;-83
2021/10/01 13:20:27;;;;;;;6.00;1.47;;;15.70;95.00;;;;;;4867291;29;20045;-82
2021/10/01 13:23:02;;;;;;;6.20;2.28;;;15.70;94.20;;;;;;4849602;29;20622;-84
2021/10/01 13:25:32;;;;;;;4.43;1.50;;;15.80;93.60;;;;;;4866581;29;20090;-83
2021/10/01 13:27:59;;;;;;;9.07;1.42;;;15.90;93.30;;;;;;4853514;29;20049;-83
2021/10/01 13:30:26;;;;;;;5.45;1.80;;;15.90;93.10;;;;;;4853038;29;21186;-85
2021/10/01 13:32:52;;;;;;;7.57;1.80;;;15.90;92.10;;;;;;4851080;29;20041;-83
2021/10/01 13:35:19;;;;;;;7.13;1.60;;;16.00;91.60;;;;;;4849510;29;20052;-84
2021/10/01 13:37:45;;;;;;;6.72;1.88;;;16.10;91.10;;;;;;4858025;29;20084;-84
2021/10/01 13:40:12;;;;;;;5.82;1.98;;;16.20;91.30;;;;;;4866686;29;20132;-81
2021/10/01 13:42:39;;;;;;;6.15;1.80;;;16.20;91.10;;;;;;4860702;29;20052;-82
2021/10/01 13:45:06;;;;;;;6.72;1.60;;;16.30;91.00;;;;;;4871206;29;20045;-78
2021/10/01 13:47:32;;;;;;;6.93;1.70;;;16.30;90.50;;;;;;4864794;29;20048;-84
2021/10/01 13:49:59;;;;;;;6.32;1.95;;;16.40;90.30;;;;;;4853815;29;20153;-83
2021/10/01 13:52:26;;;;;;;4.13;2.25;;;16.40;90.30;;;;;;4825392;29;20132;-83
2021/10/01 13:54:52;;;;;;;10.30;2.35;;;16.40;90.70;;;;;;4874274;29;20037;-80
2021/10/01 13:57:18;;;;;;;7.32;1.50;;;16.40;91.00;;;;;;4864290;29;20501;-79
2021/10/01 13:59:43;;;;;;;7.40;2.22;;;16.40;91.30;;;;;;4824982;29;20100;-84
2021/10/01 14:02:10;;;;;;;6.68;2.15;;;16.40;91.40;;;;;;4828065;29;20052;-83
2021/10/01 14:04:35;;;;;;;11.75;1.98;;;16.40;91.20;;;;;;4837663;29;20053;-83
2021/10/01 14:07:01;;;;;;;7.85;1.60;;;16.40;91.10;;;;;;4839332;29;20045;-84
2021/10/01 14:09:27;;;;;;;8.88;1.92;;;16.30;91.10;;;;;;4843367;29;20040;-81
2021/10/01 14:11:53;;;;;;;7.90;1.83;;;16.40;91.50;;;;;;4871296;29;20118;-84
2021/10/01 14:14:19;;;;;;;8.63;2.00;;;16.30;91.30;;;;;;4863366;29;20103;-85
2021/10/01 14:16:44;;;;;;;6.93;1.70;;;16.30;91.30;;;;;;4858001;29;20515;-81
2021/10/01 14:19:10;;;;;;;8.45;1.90;;;16.30;91.60;;;;;;4844296;29;20044;-83
2021/10/01 14:21:36;;;;;;;9.52;1.65;;;16.30;91.70;;;;;;4870185;29;20391;-83
2021/10/01 14:24:02;;;;;;;5.65;1.70;;;16.30;91.70;;;;;;4854953;29;20045;-82
2021/10/01 14:26:30;;;;;;;5.10;1.70;;;16.30;91.50;;;;;;4871787;29;20044;-78
2021/10/01 14:28:56;;;;;;;7.38;1.67;;;16.30;91.20;;;;;;4867292;29;20041;-78
2021/10/01 14:31:22;;;;;;;5.25;1.60;;;16.30;90.70;;;;;;4822758;29;20528;-83
2021/10/01 14:33:48;;;;;;;6.93;1.52;;;16.30;90.30;;;;;;4856708;29;20048;-80
2021/10/01 14:36:14;;;;;;;5.50;1.85;;;16.40;90.50;;;;;;4824904;29;20032;-84
2021/10/01 14:38:39;;;;;;;7.78;1.90;;;16.40;90.70;;;;;;4847444;29;20504;-81